sensor_id;sensor_type;location;lat;lon;timestamp;pressure;altitude;pressure_sealevel;temperature;humidity
80733;BME280;70130;44.534;18.678;2023-07-29T00:01:09;98721.34;;;19.74;73.36
80733;BME280;70130;44.534;18.678;2023-07-29T00:03:34;98714.75;;;19.75;73.90
80733;BME280;70130;44.534;18.678;2023-07-29T00:06:00;98713.19;;;19.74;73.62
80733;BME280;70130;44.534;18.678;2023-07-29T00:08:25;98711.25;;;19.61;74.09
80733;BME280;70130;44.534;18.678;2023-07-29T00:10:51;98721.38;;;19.46;74.65
80733;BME280;70130;44.534;18.678;2023-07-29T00:13:17;98723.72;;;19.48;74.43
80733;BME280;70130;44.534;18.678;2023-07-29T00:15:42;98723.31;;;19.49;74.78
80733;BME280;70130;44.534;18.678;2023-07-29T00:18:08;98723.69;;;19.55;74.54
80733;BME280;70130;44.534;18.678;2023-07-29T00:20:34;98725.66;;;19.68;74.19
80733;BME280;70130;44.534;18.678;2023-07-29T00:22:59;98724.47;;;19.66;73.83
80733;BME280;70130;44.534;18.678;2023-07-29T00:25:26;98724.50;;;19.62;73.78
80733;BME280;70130;44.534;18.678;2023-07-29T00:27:54;98719.81;;;19.52;74.47
80733;BME280;70130;44.534;18.678;2023-07-29T00:30:20;98719.81;;;19.52;74.56
80733;BME280;70130;44.534;18.678;2023-07-29T00:32:46;98716.31;;;19.52;74.58
80733;BME280;70130;44.534;18.678;2023-07-29T00:35:12;98714.75;;;19.33;74.72
80733;BME280;70130;44.534;18.678;2023-07-29T00:37:37;98712.81;;;19.37;73.76
80733;BME280;70130;44.534;18.678;2023-07-29T00:40:12;98715.50;;;19.30;73.90
80733;BME280;70130;44.534;18.678;2023-07-29T00:42:40;98714.34;;;19.31;74.72
80733;BME280;70130;44.534;18.678;2023-07-29T00:45:09;98708.91;;;19.34;74.46
80733;BME280;70130;44.534;18.678;2023-07-29T00:47:34;98706.56;;;19.29;74.85
80733;BME280;70130;44.534;18.678;2023-07-29T00:50:01;98700.75;;;19.24;75.17
80733;BME280;70130;44.534;18.678;2023-07-29T00:52:26;98695.66;;;19.05;75.38
80733;BME280;70130;44.534;18.678;2023-07-29T00:54:53;98694.91;;;19.15;74.84
80733;BME280;70130;44.534;18.678;2023-07-29T00:57:19;98695.69;;;19.08;75.34
80733;BME280;70130;44.534;18.678;2023-07-29T00:59:46;98703.44;;;19.10;74.90
80733;BME280;70130;44.534;18.678;2023-07-29T01:02:11;98695.69;;;19.08;75.02
80733;BME280;70130;44.534;18.678;2023-07-29T01:04:37;98706.53;;;18.97;75.53
80733;BME280;70130;44.534;18.678;2023-07-29T01:07:38;98700.31;;;18.97;75.09
80733;BME280;70130;44.534;18.678;2023-07-29T01:10:03;98697.59;;;18.86;75.26
80733;BME280;70130;44.534;18.678;2023-07-29T01:12:47;98699.53;;;18.79;75.33
80733;BME280;70130;44.534;18.678;2023-07-29T01:15:28;98706.91;;;18.85;75.15
80733;BME280;70130;44.534;18.678;2023-07-29T01:18:22;98699.53;;;18.79;75.03
80733;BME280;70130;44.534;18.678;2023-07-29T01:20:48;98704.94;;;18.75;75.74
80733;BME280;70130;44.534;18.678;2023-07-29T01:23:24;98701.47;;;18.78;75.21
80733;BME280;70130;44.534;18.678;2023-07-29T01:25:49;98699.91;;;18.74;75.48
80733;BME280;70130;44.534;18.678;2023-07-29T01:28:15;98708.44;;;18.69;75.62
80733;BME280;70130;44.534;18.678;2023-07-29T01:30:43;98709.22;;;18.76;75.18
80733;BME280;70130;44.534;18.678;2023-07-29T01:33:16;98700.28;;;18.69;75.51
80733;BME280;70130;44.534;18.678;2023-07-29T01:36:03;98699.50;;;18.65;75.83
80733;BME280;70130;44.534;18.678;2023-07-29T01:38:36;98700.16;;;18.51;76.52
80733;BME280;70130;44.534;18.678;2023-07-29T01:41:04;98696.19;;;18.24;77.45
80733;BME280;70130;44.534;18.678;2023-07-29T01:43:32;98702.06;;;18.36;77.01
80733;BME280;70130;44.534;18.678;2023-07-29T01:45:58;98700.16;;;18.47;76.85
80733;BME280;70130;44.534;18.678;2023-07-29T01:48:24;98698.59;;;18.43;77.07
80733;BME280;70130;44.534;18.678;2023-07-29T01:50:50;98700.53;;;18.39;76.98
80733;BME280;70130;44.534;18.678;2023-07-29T01:53:15;98699.75;;;18.42;76.45
80733;BME280;70130;44.534;18.678;2023-07-29T01:55:42;98698.19;;;18.34;76.65
80733;BME280;70130;44.534;18.678;2023-07-29T01:58:08;98695.47;;;18.30;76.83
80733;BME280;70130;44.534;18.678;2023-07-29T02:00:35;98691.97;;;18.30;76.54
80733;BME280;70130;44.534;18.678;2023-07-29T02:03:01;98696.25;;;18.34;76.62
80733;BME280;70130;44.534;18.678;2023-07-29T02:05:27;98691.97;;;18.33;76.42
80733;BME280;70130;44.534;18.678;2023-07-29T02:07:52;98693.13;;;18.29;76.72
80733;BME280;70130;44.534;18.678;2023-07-29T02:10:18;98688.44;;;18.26;76.58
80733;BME280;70130;44.534;18.678;2023-07-29T02:12:43;98686.47;;;18.23;76.95
80733;BME280;70130;44.534;18.678;2023-07-29T02:15:09;98698.53;;;18.29;77.08
80733;BME280;70130;44.534;18.678;2023-07-29T02:17:35;98701.28;;;18.32;76.75
80733;BME280;70130;44.534;18.678;2023-07-29T02:20:01;98700.06;;;18.26;76.73
80733;BME280;70130;44.534;18.678;2023-07-29T02:22:27;98698.91;;;18.24;77.00
80733;BME280;70130;44.534;18.678;2023-07-29T02:24:53;98705.91;;;18.28;76.75
80733;BME280;70130;44.534;18.678;2023-07-29T02:27:18;98700.84;;;18.20;76.70
80733;BME280;70130;44.534;18.678;2023-07-29T02:29:44;98709.38;;;18.22;76.67
80733;BME280;70130;44.534;18.678;2023-07-29T02:32:09;98713.22;;;18.10;77.28
80733;BME280;70130;44.534;18.678;2023-07-29T02:34:35;98712.00;;;18.00;77.43
80733;BME280;70130;44.534;18.678;2023-07-29T02:37:01;98719.38;;;18.03;77.55
80733;BME280;70130;44.534;18.678;2023-07-29T02:39:26;98708.09;;;18.01;77.62
80733;BME280;70130;44.534;18.678;2023-07-29T02:41:52;98708.06;;;17.91;78.08
80733;BME280;70130;44.534;18.678;2023-07-29T02:44:18;98714.72;;;18.00;77.75
80733;BME280;70130;44.534;18.678;2023-07-29T02:46:44;98711.94;;;17.97;77.80
80733;BME280;70130;44.534;18.678;2023-07-29T02:49:10;98725.56;;;18.04;77.44
80733;BME280;70130;44.534;18.678;2023-07-29T02:51:36;98710.78;;;17.91;77.75
80733;BME280;70130;44.534;18.678;2023-07-29T02:54:01;98719.22;;;17.82;77.82
80733;BME280;70130;44.534;18.678;2023-07-29T02:56:27;98726.59;;;17.82;78.05
80733;BME280;70130;44.534;18.678;2023-07-29T02:58:53;98716.13;;;17.80;77.87
80733;BME280;70130;44.534;18.678;2023-07-29T03:01:20;98716.13;;;17.80;77.76
80733;BME280;70130;44.534;18.678;2023-07-29T03:03:46;98713.06;;;17.85;77.59
80733;BME280;70130;44.534;18.678;2023-07-29T03:06:14;98720.78;;;17.83;77.46
80733;BME280;70130;44.534;18.678;2023-07-29T03:08:39;98726.19;;;17.80;77.88
80733;BME280;70130;44.534;18.678;2023-07-29T03:11:09;98733.19;;;17.81;77.34
80733;BME280;70130;44.534;18.678;2023-07-29T03:13:36;98726.16;;;17.76;77.30
80733;BME280;70130;44.534;18.678;2023-07-29T03:16:09;98722.28;;;17.74;77.72
80733;BME280;70130;44.534;18.678;2023-07-29T03:18:37;98726.53;;;17.71;77.87
80733;BME280;70130;44.534;18.678;2023-07-29T03:21:03;98728.47;;;17.74;78.09
80733;BME280;70130;44.534;18.678;2023-07-29T03:23:30;98724.22;;;17.73;77.99
80733;BME280;70130;44.534;18.678;2023-07-29T03:25:57;98732.69;;;17.64;78.23
80733;BME280;70130;44.534;18.678;2023-07-29T03:28:32;98730.34;;;17.63;78.28
80733;BME280;70130;44.534;18.678;2023-07-29T03:30:58;98720.31;;;17.71;77.68
80733;BME280;70130;44.534;18.678;2023-07-29T03:33:25;98722.66;;;17.72;77.86
80733;BME280;70130;44.534;18.678;2023-07-29T03:35:52;98726.47;;;17.64;78.15
80733;BME280;70130;44.534;18.678;2023-07-29T03:38:18;98729.19;;;17.64;77.92
80733;BME280;70130;44.534;18.678;2023-07-29T03:40:43;98729.19;;;17.64;78.02
80733;BME280;70130;44.534;18.678;2023-07-29T03:43:09;98726.78;;;17.55;78.12
80733;BME280;70130;44.534;18.678;2023-07-29T03:45:36;98721.94;;;17.31;78.60
80733;BME280;70130;44.534;18.678;2023-07-29T03:48:02;98728.88;;;17.28;79.00
80733;BME280;70130;44.534;18.678;2023-07-29T03:50:29;98726.50;;;17.27;78.98
80733;BME280;70130;44.534;18.678;2023-07-29T03:52:55;98728.09;;;17.28;79.19
80733;BME280;70130;44.534;18.678;2023-07-29T03:55:21;98733.19;;;17.37;78.41
80733;BME280;70130;44.534;18.678;2023-07-29T03:57:46;98732.44;;;17.40;78.38
80733;BME280;70130;44.534;18.678;2023-07-29T04:00:12;98736.03;;;17.51;78.15
80733;BME280;70130;44.534;18.678;2023-07-29T04:02:42;98732.53;;;17.50;78.27
80733;BME280;70130;44.534;18.678;2023-07-29T04:05:09;98737.53;;;17.45;78.53
80733;BME280;70130;44.534;18.678;2023-07-29T04:07:35;98743.28;;;17.36;78.90
80733;BME280;70130;44.534;18.678;2023-07-29T04:10:01;98746.47;;;17.49;78.60
80733;BME280;70130;44.534;18.678;2023-07-29T04:12:27;98734.38;;;17.39;78.79
80733;BME280;70130;44.534;18.678;2023-07-29T04:14:53;98750.47;;;17.62;78.53
80733;BME280;70130;44.534;18.678;2023-07-29T04:17:19;98745.00;;;17.58;78.62
80733;BME280;70130;44.534;18.678;2023-07-29T04:19:45;98745.38;;;17.57;78.93
80733;BME280;70130;44.534;18.678;2023-07-29T04:22:10;98735.97;;;17.44;79.33
80733;BME280;70130;44.534;18.678;2023-07-29T04:24:37;98743.16;;;17.66;78.79
80733;BME280;70130;44.534;18.678;2023-07-29T04:27:03;98735.09;;;17.77;78.02
80733;BME280;70130;44.534;18.678;2023-07-29T04:29:29;98740.19;;;17.85;77.86
80733;BME280;70130;44.534;18.678;2023-07-29T04:31:55;98746.00;;;17.87;77.64
80733;BME280;70130;44.534;18.678;2023-07-29T04:34:21;98747.59;;;17.92;77.51
80733;BME280;70130;44.534;18.678;2023-07-29T04:36:47;98754.22;;;17.98;77.06
80733;BME280;70130;44.534;18.678;2023-07-29T04:39:13;98747.28;;;18.04;76.66
80733;BME280;70130;44.534;18.678;2023-07-29T04:41:39;98746.94;;;18.05;76.81
80733;BME280;70130;44.534;18.678;2023-07-29T04:44:05;98738.78;;;18.05;76.61
80733;BME280;70130;44.534;18.678;2023-07-29T04:46:32;98738.38;;;18.07;76.98
80733;BME280;70130;44.534;18.678;2023-07-29T04:48:57;98743.50;;;18.19;76.30
80733;BME280;70130;44.534;18.678;2023-07-29T04:51:23;98752.09;;;18.28;76.35
80733;BME280;70130;44.534;18.678;2023-07-29T04:53:49;98750.16;;;18.36;75.71
80733;BME280;70130;44.534;18.678;2023-07-29T04:56:15;98744.00;;;18.39;76.04
80733;BME280;70130;44.534;18.678;2023-07-29T04:58:41;98754.50;;;18.51;75.43
80733;BME280;70130;44.534;18.678;2023-07-29T05:01:07;98755.28;;;18.44;75.65
80733;BME280;70130;44.534;18.678;2023-07-29T05:03:33;98762.38;;;18.63;75.02
80733;BME280;70130;44.534;18.678;2023-07-29T05:05:59;98755.38;;;18.62;75.10
80733;BME280;70130;44.534;18.678;2023-07-29T05:08:26;98752.28;;;18.67;75.28
80733;BME280;70130;44.534;18.678;2023-07-29T05:10:52;98753.44;;;18.66;74.87
80733;BME280;70130;44.534;18.678;2023-07-29T05:13:19;98756.97;;;18.77;74.66
80733;BME280;70130;44.534;18.678;2023-07-29T05:15:49;98754.69;;;18.83;74.55
80733;BME280;70130;44.534;18.678;2023-07-29T05:18:16;98756.59;;;18.79;74.73
80733;BME280;70130;44.534;18.678;2023-07-29T05:20:42;98757.03;;;18.84;74.48
80733;BME280;70130;44.534;18.678;2023-07-29T05:23:08;98767.53;;;18.96;74.10
80733;BME280;70130;44.534;18.678;2023-07-29T05:25:34;98760.16;;;18.97;74.01
80733;BME280;70130;44.534;18.678;2023-07-29T05:28:02;98757.81;;;18.95;74.28
80733;BME280;70130;44.534;18.678;2023-07-29T05:30:29;98764.84;;;19.07;73.92
80733;BME280;70130;44.534;18.678;2023-07-29T05:32:57;98767.16;;;19.05;73.95
80733;BME280;70130;44.534;18.678;2023-07-29T05:35:24;98765.22;;;18.98;73.86
80733;BME280;70130;44.534;18.678;2023-07-29T05:37:50;98767.19;;;19.09;74.07
80733;BME280;70130;44.534;18.678;2023-07-29T05:40:15;98771.84;;;19.15;73.62
80733;BME280;70130;44.534;18.678;2023-07-29T05:42:41;98772.63;;;19.09;73.73
80733;BME280;70130;44.534;18.678;2023-07-29T05:45:07;98776.94;;;19.27;73.59
80733;BME280;70130;44.534;18.678;2023-07-29T05:47:33;98775.34;;;19.30;73.31
80733;BME280;70130;44.534;18.678;2023-07-29T05:49:58;98775.38;;;19.33;73.65
80733;BME280;70130;44.534;18.678;2023-07-29T05:52:25;98769.94;;;19.33;73.46
80733;BME280;70130;44.534;18.678;2023-07-29T05:54:50;98766.47;;;19.47;73.31
80733;BME280;70130;44.534;18.678;2023-07-29T05:57:16;98771.91;;;19.54;73.38
80733;BME280;70130;44.534;18.678;2023-07-29T05:59:42;98768.03;;;19.48;73.20
80733;BME280;70130;44.534;18.678;2023-07-29T06:02:07;98764.53;;;19.51;73.21
80733;BME280;70130;44.534;18.678;2023-07-29T06:04:33;98784.34;;;19.45;73.36
80733;BME280;70130;44.534;18.678;2023-07-29T06:06:58;98783.91;;;19.39;73.56
80733;BME280;70130;44.534;18.678;2023-07-29T06:09:24;98775.78;;;19.42;73.85
80733;BME280;70130;44.534;18.678;2023-07-29T06:11:50;98788.25;;;19.47;74.20
80733;BME280;70130;44.534;18.678;2023-07-29T06:14:16;98782.81;;;19.47;73.90
80733;BME280;70130;44.534;18.678;2023-07-29T06:16:42;98776.56;;;19.43;74.04
80733;BME280;70130;44.534;18.678;2023-07-29T06:19:07;98783.56;;;19.44;73.63
80733;BME280;70130;44.534;18.678;2023-07-29T06:21:34;98789.03;;;19.48;73.86
80733;BME280;70130;44.534;18.678;2023-07-29T06:24:00;98795.59;;;19.43;74.05
80733;BME280;70130;44.534;18.678;2023-07-29T06:26:26;98803.03;;;19.53;73.51
80733;BME280;70130;44.534;18.678;2023-07-29T06:28:52;98793.72;;;19.58;73.74
80733;BME280;70130;44.534;18.678;2023-07-29T06:31:17;98804.59;;;19.61;73.67
80733;BME280;70130;44.534;18.678;2023-07-29T06:33:43;98801.47;;;19.66;73.69
80733;BME280;70130;44.534;18.678;2023-07-29T06:36:08;98799.94;;;19.83;72.83
80733;BME280;70130;44.534;18.678;2023-07-29T06:38:34;98791.75;;;19.87;72.76
80733;BME280;70130;44.534;18.678;2023-07-29T06:41:00;98799.91;;;20.04;72.09
80733;BME280;70130;44.534;18.678;2023-07-29T06:43:25;98800.66;;;20.19;71.21
80733;BME280;70130;44.534;18.678;2023-07-29T06:45:51;98794.41;;;20.29;71.32
80733;BME280;70130;44.534;18.678;2023-07-29T06:48:17;98793.63;;;20.39;71.44
80733;BME280;70130;44.534;18.678;2023-07-29T06:50:44;98800.97;;;20.60;70.93
80733;BME280;70130;44.534;18.678;2023-07-29T06:53:09;98795.13;;;20.72;70.21
80733;BME280;70130;44.534;18.678;2023-07-29T06:55:35;98788.84;;;20.79;70.13
80733;BME280;70130;44.534;18.678;2023-07-29T06:58:01;98791.16;;;20.84;69.79
80733;BME280;70130;44.534;18.678;2023-07-29T07:00:27;98790.34;;;20.90;70.09
80733;BME280;70130;44.534;18.678;2023-07-29T07:02:53;98784.44;;;20.99;69.93
80733;BME280;70130;44.534;18.678;2023-07-29T07:05:19;98791.03;;;21.08;69.78
80733;BME280;70130;44.534;18.678;2023-07-29T07:07:44;98789.03;;;21.20;69.48
80733;BME280;70130;44.534;18.678;2023-07-29T07:10:10;98786.63;;;21.32;68.92
80733;BME280;70130;44.534;18.678;2023-07-29T07:12:35;98788.88;;;21.44;67.98
80733;BME280;70130;44.534;18.678;2023-07-29T07:15:01;98791.47;;;21.62;67.68
80733;BME280;70130;44.534;18.678;2023-07-29T07:17:27;98789.47;;;21.70;67.01
80733;BME280;70130;44.534;18.678;2023-07-29T07:19:52;98788.59;;;21.83;65.25
80733;BME280;70130;44.534;18.678;2023-07-29T07:22:18;98802.09;;;22.01;65.65
80733;BME280;70130;44.534;18.678;2023-07-29T07:24:44;98789.66;;;21.96;65.24
80733;BME280;70130;44.534;18.678;2023-07-29T07:27:09;98791.25;;;21.94;64.73
80733;BME280;70130;44.534;18.678;2023-07-29T07:29:35;98788.53;;;21.94;65.38
80733;BME280;70130;44.534;18.678;2023-07-29T07:32:00;98790.84;;;21.92;65.18
80733;BME280;70130;44.534;18.678;2023-07-29T07:34:26;98789.28;;;21.91;65.56
80733;BME280;70130;44.534;18.678;2023-07-29T07:36:52;98789.66;;;21.93;65.46
80733;BME280;70130;44.534;18.678;2023-07-29T07:39:17;98790.03;;;21.99;65.27
80733;BME280;70130;44.534;18.678;2023-07-29T07:41:43;98797.81;;;22.04;65.20
80733;BME280;70130;44.534;18.678;2023-07-29T07:44:08;98782.53;;;22.06;64.88
80733;BME280;70130;44.534;18.678;2023-07-29T07:46:34;98779.38;;;22.11;63.49
80733;BME280;70130;44.534;18.678;2023-07-29T07:48:59;98778.53;;;22.18;62.04
80733;BME280;70130;44.534;18.678;2023-07-29T07:51:25;98777.53;;;22.38;61.59
80733;BME280;70130;44.534;18.678;2023-07-29T07:53:51;98771.25;;;22.42;62.18
80733;BME280;70130;44.534;18.678;2023-07-29T07:56:16;98773.53;;;22.47;62.35
80733;BME280;70130;44.534;18.678;2023-07-29T07:58:42;98773.19;;;22.45;62.19
80733;BME280;70130;44.534;18.678;2023-07-29T08:01:08;98780.38;;;22.62;61.71
80733;BME280;70130;44.534;18.678;2023-07-29T08:03:35;98783.81;;;22.69;59.54
80733;BME280;70130;44.534;18.678;2023-07-29T08:06:01;98779.47;;;22.75;59.26
80733;BME280;70130;44.534;18.678;2023-07-29T08:08:28;98780.19;;;22.79;58.78
80733;BME280;70130;44.534;18.678;2023-07-29T08:10:54;98777.63;;;22.96;55.55
80733;BME280;70130;44.534;18.678;2023-07-29T08:13:24;98772.09;;;23.03;54.37
80733;BME280;70130;44.534;18.678;2023-07-29T08:15:51;98770.94;;;23.00;54.70
80733;BME280;70130;44.534;18.678;2023-07-29T08:18:17;98760.69;;;23.04;55.04
80733;BME280;70130;44.534;18.678;2023-07-29T08:20:59;98762.13;;;23.16;54.42
80733;BME280;70130;44.534;18.678;2023-07-29T08:23:28;98758.50;;;23.22;53.34
80733;BME280;70130;44.534;18.678;2023-07-29T08:25:55;98754.47;;;23.31;52.77
80733;BME280;70130;44.534;18.678;2023-07-29T08:28:22;98752.41;;;23.38;54.88
80733;BME280;70130;44.534;18.678;2023-07-29T08:30:48;98748.09;;;23.64;54.23
80733;BME280;70130;44.534;18.678;2023-07-29T08:33:14;98743.81;;;23.86;52.64
80733;BME280;70130;44.534;18.678;2023-07-29T08:35:40;98736.41;;;23.83;51.77
80733;BME280;70130;44.534;18.678;2023-07-29T08:38:05;98739.09;;;23.87;51.52
80733;BME280;70130;44.534;18.678;2023-07-29T08:40:31;98738.41;;;23.83;51.02
80733;BME280;70130;44.534;18.678;2023-07-29T08:43:04;98729.41;;;23.82;49.93
80733;BME280;70130;44.534;18.678;2023-07-29T08:45:33;98728.22;;;24.03;48.94
80733;BME280;70130;44.534;18.678;2023-07-29T08:48:02;98727.78;;;24.28;45.81
80733;BME280;70130;44.534;18.678;2023-07-29T08:50:32;98719.91;;;24.30;46.26
80733;BME280;70130;44.534;18.678;2023-07-29T08:52:59;98725.97;;;24.41;47.58
80733;BME280;70130;44.534;18.678;2023-07-29T08:55:26;98723.94;;;24.45;46.55
80733;BME280;70130;44.534;18.678;2023-07-29T08:57:52;98729.78;;;24.47;46.04
80733;BME280;70130;44.534;18.678;2023-07-29T09:00:19;98722.94;;;24.55;47.13
80733;BME280;70130;44.534;18.678;2023-07-29T09:02:45;98724.97;;;24.71;46.42
80733;BME280;70130;44.534;18.678;2023-07-29T09:05:10;98725.28;;;24.73;46.85
80733;BME280;70130;44.534;18.678;2023-07-29T09:07:36;98714.31;;;24.73;46.86
80733;BME280;70130;44.534;18.678;2023-07-29T09:10:02;98707.03;;;25.02;46.52
80733;BME280;70130;44.534;18.678;2023-07-29T09:12:28;98709.69;;;24.89;45.50
80733;BME280;70130;44.534;18.678;2023-07-29T09:14:53;98703.06;;;24.87;45.56
80733;BME280;70130;44.534;18.678;2023-07-29T09:17:20;98712.28;;;25.13;45.12
80733;BME280;70130;44.534;18.678;2023-07-29T09:19:48;98713.22;;;25.22;44.56
80733;BME280;70130;44.534;18.678;2023-07-29T09:22:20;98704.22;;;25.06;44.20
80733;BME280;70130;44.534;18.678;2023-07-29T09:24:46;98699.00;;;25.27;44.29
80733;BME280;70130;44.534;18.678;2023-07-29T09:27:28;98702.84;;;25.46;44.46
80733;BME280;70130;44.534;18.678;2023-07-29T09:29:57;98695.47;;;25.43;44.82
80733;BME280;70130;44.534;18.678;2023-07-29T09:32:24;98689.25;;;25.88;43.82
80733;BME280;70130;44.534;18.678;2023-07-29T09:34:50;98694.72;;;26.04;42.19
80733;BME280;70130;44.534;18.678;2023-07-29T09:37:23;98685.59;;;25.78;41.76
80733;BME280;70130;44.534;18.678;2023-07-29T09:39:49;98691.19;;;25.74;41.86
80733;BME280;70130;44.534;18.678;2023-07-29T09:42:22;98683.31;;;25.60;41.54
80733;BME280;70130;44.534;18.678;2023-07-29T09:44:51;98685.00;;;25.54;41.70
80733;BME280;70130;44.534;18.678;2023-07-29T09:47:25;98695.13;;;25.57;41.95
80733;BME280;70130;44.534;18.678;2023-07-29T09:49:52;98687.56;;;25.77;42.43
80733;BME280;70130;44.534;18.678;2023-07-29T09:52:19;98695.56;;;26.01;41.79
80733;BME280;70130;44.534;18.678;2023-07-29T09:54:46;98691.75;;;26.11;41.84
80733;BME280;70130;44.534;18.678;2023-07-29T09:57:17;98696.59;;;26.07;42.63
80733;BME280;70130;44.534;18.678;2023-07-29T09:59:49;98689.88;;;26.08;41.88
80733;BME280;70130;44.534;18.678;2023-07-29T10:02:19;98698.69;;;26.15;40.45
80733;BME280;70130;44.534;18.678;2023-07-29T10:04:46;98699.03;;;26.17;41.91
80733;BME280;70130;44.534;18.678;2023-07-29T10:07:12;98696.06;;;26.12;42.20
80733;BME280;70130;44.534;18.678;2023-07-29T10:09:39;98698.16;;;26.20;43.07
80733;BME280;70130;44.534;18.678;2023-07-29T10:12:06;98692.25;;;26.22;41.57
80733;BME280;70130;44.534;18.678;2023-07-29T10:14:32;98693.06;;;26.35;41.37
80733;BME280;70130;44.534;18.678;2023-07-29T10:16:58;98686.34;;;26.36;40.99
80733;BME280;70130;44.534;18.678;2023-07-29T10:19:25;98693.28;;;26.41;41.32
80733;BME280;70130;44.534;18.678;2023-07-29T10:21:52;98697.84;;;26.47;41.77
80733;BME280;70130;44.534;18.678;2023-07-29T10:24:24;98684.06;;;26.47;41.67
80733;BME280;70130;44.534;18.678;2023-07-29T10:26:57;98684.75;;;26.51;42.01
80733;BME280;70130;44.534;18.678;2023-07-29T10:29:24;98685.97;;;26.63;41.85
80733;BME280;70130;44.534;18.678;2023-07-29T10:31:52;98677.94;;;26.69;41.57
80733;BME280;70130;44.534;18.678;2023-07-29T10:34:20;98678.16;;;26.61;41.50
80733;BME280;70130;44.534;18.678;2023-07-29T10:36:47;98673.75;;;26.64;41.37
80733;BME280;70130;44.534;18.678;2023-07-29T10:39:13;98682.91;;;26.74;40.58
80733;BME280;70130;44.534;18.678;2023-07-29T10:41:58;98675.78;;;26.89;40.61
80733;BME280;70130;44.534;18.678;2023-07-29T10:47:26;98668.50;;;26.95;39.84
80733;BME280;70130;44.534;18.678;2023-07-29T10:49:57;98665.41;;;27.05;40.24
80733;BME280;70130;44.534;18.678;2023-07-29T10:55:02;98662.19;;;27.32;40.33
80733;BME280;70130;44.534;18.678;2023-07-29T10:57:37;98650.13;;;27.39;40.76
80733;BME280;70130;44.534;18.678;2023-07-29T11:00:04;98657.75;;;27.47;39.88
80733;BME280;70130;44.534;18.678;2023-07-29T11:02:31;98655.66;;;27.52;39.85
80733;BME280;70130;44.534;18.678;2023-07-29T11:04:57;98656.88;;;27.38;39.25
80733;BME280;70130;44.534;18.678;2023-07-29T11:07:24;98664.59;;;27.43;39.59
80733;BME280;70130;44.534;18.678;2023-07-29T11:10:05;98653.22;;;27.54;39.27
80733;BME280;70130;44.534;18.678;2023-07-29T11:12:50;98648.66;;;27.72;39.35
80733;BME280;70130;44.534;18.678;2023-07-29T11:15:24;98652.28;;;27.69;38.39
80733;BME280;70130;44.534;18.678;2023-07-29T11:20:17;98653.13;;;27.79;38.62
80733;BME280;70130;44.534;18.678;2023-07-29T11:22:43;98662.19;;;27.79;38.39
80733;BME280;70130;44.534;18.678;2023-07-29T11:25:11;98639.47;;;27.75;38.56
80733;BME280;70130;44.534;18.678;2023-07-29T11:27:37;98637.63;;;27.94;38.68
80733;BME280;70130;44.534;18.678;2023-07-29T11:30:09;98637.19;;;28.17;38.48
80733;BME280;70130;44.534;18.678;2023-07-29T11:32:35;98639.69;;;28.24;38.40
80733;BME280;70130;44.534;18.678;2023-07-29T11:35:04;98655.56;;;28.42;38.68
80733;BME280;70130;44.534;18.678;2023-07-29T11:37:30;98652.84;;;28.20;38.84
80733;BME280;70130;44.534;18.678;2023-07-29T11:39:56;98643.28;;;28.12;38.58
80733;BME280;70130;44.534;18.678;2023-07-29T11:42:21;98644.88;;;28.22;38.62
80733;BME280;70130;44.534;18.678;2023-07-29T11:44:47;98638.97;;;28.33;38.48
80733;BME280;70130;44.534;18.678;2023-07-29T11:47:13;98649.97;;;28.24;38.74
80733;BME280;70130;44.534;18.678;2023-07-29T11:49:39;98638.47;;;28.25;38.61
80733;BME280;70130;44.534;18.678;2023-07-29T11:52:09;98632.75;;;28.42;38.71
80733;BME280;70130;44.534;18.678;2023-07-29T11:54:36;98641.63;;;28.37;38.87
80733;BME280;70130;44.534;18.678;2023-07-29T11:57:06;98640.97;;;28.32;38.18
80733;BME280;70130;44.534;18.678;2023-07-29T11:59:33;98633.19;;;28.40;38.75
80733;BME280;70130;44.534;18.678;2023-07-29T12:02:00;98633.72;;;28.57;38.57
80733;BME280;70130;44.534;18.678;2023-07-29T12:04:27;98629.16;;;28.63;38.54
80733;BME280;70130;44.534;18.678;2023-07-29T12:06:53;98630.16;;;28.47;38.45
80733;BME280;70130;44.534;18.678;2023-07-29T12:09:18;98635.56;;;28.51;38.34
80733;BME280;70130;44.534;18.678;2023-07-29T12:11:44;98631.09;;;28.75;37.67
80733;BME280;70130;44.534;18.678;2023-07-29T12:14:10;98631.25;;;28.81;37.86
80733;BME280;70130;44.534;18.678;2023-07-29T12:16:41;98618.50;;;28.74;38.04
80733;BME280;70130;44.534;18.678;2023-07-29T12:19:07;98621.19;;;28.65;38.07
80733;BME280;70130;44.534;18.678;2023-07-29T12:21:32;98612.09;;;28.86;38.18
80733;BME280;70130;44.534;18.678;2023-07-29T12:23:58;98603.28;;;29.28;38.08
80733;BME280;70130;44.534;18.678;2023-07-29T12:26:28;98603.94;;;29.50;38.06
80733;BME280;70130;44.534;18.678;2023-07-29T12:28:53;98604.25;;;29.34;37.75
80733;BME280;70130;44.534;18.678;2023-07-29T12:31:19;98618.50;;;29.41;38.06
80733;BME280;70130;44.534;18.678;2023-07-29T12:33:44;98613.63;;;29.64;36.89
80733;BME280;70130;44.534;18.678;2023-07-29T12:36:10;98616.41;;;29.45;37.10
80733;BME280;70130;44.534;18.678;2023-07-29T12:38:35;98616.06;;;29.34;37.66
80733;BME280;70130;44.534;18.678;2023-07-29T12:41:01;98612.25;;;29.50;37.47
80733;BME280;70130;44.534;18.678;2023-07-29T12:43:28;98606.72;;;29.50;37.69
80733;BME280;70130;44.534;18.678;2023-07-29T12:45:54;98608.84;;;29.46;37.89
80733;BME280;70130;44.534;18.678;2023-07-29T12:48:20;98619.84;;;29.28;37.51
80733;BME280;70130;44.534;18.678;2023-07-29T12:50:45;98619.84;;;29.28;37.46
80733;BME280;70130;44.534;18.678;2023-07-29T12:53:11;98605.69;;;28.98;38.09
80733;BME280;70130;44.534;18.678;2023-07-29T12:55:37;98608.22;;;29.42;37.96
80733;BME280;70130;44.534;18.678;2023-07-29T12:58:03;98606.09;;;29.73;37.65